Strongs, Michigan
Current Conditions -  °F | °C
As of 10:55 AM on Friday 19 Dec 2014 (Local Time) from KERY Reporting Station
Clear Clear  
Wind Chill: 16°   Ceiling: Unl
Heat Index: 16°   Visibility: 10mi
Dew Point: 15°   Wind: 0mph
Humidity: 95%   Direction: NA
Pressure: 30.28"   Gusts: NA
Location:  46.36°N, 84.97°W
Report Text: KERY 191555Z AUTO 00000KT 10SM CLR M09/M09 A3028 RMK AO2 T10891095
Loading
Personal Weather Stations






























Interactive Weather Map New forecast layout! Learn more

10-Day Weather Forecast

Advertisements
Track Severe Weather on mobile